Roscrea, Ireland
Current Conditions -  °F | °C
As of 9:30 AM on Tuesday 27 Jan 2015 (Local Time) from EINN Reporting Station
Broken Clouds Broken Clouds  
Wind Chill: 40°   Ceiling: 2500
Heat Index: 45°   Visibility: 6mi
Dew Point: 41°   Wind: 8mph
Humidity: 87%   Direction: 220°SW
Pressure: 30.39"   Gusts: NA
Location:  52.96°N, 7.81°W
Report Text: EINN 270830Z 22007KT 9999 FEW015 BKN025 BKN030 07/05 Q1029 NOSIG
Loading
Personal Weather Stations






























Interactive Weather Map New forecast layout! Learn more

10-Day Weather Forecast

Advertisements
Track Severe Weather on mobile